sensor_id;sensor_type;location;lat;lon;timestamp;P1;P2;P0
33948;PMS7003;20229;49.856;19.030;2023-11-22T00:02:18;9;8;6
33948;PMS7003;20229;49.856;19.030;2023-11-22T00:07:33;11;10;6
33948;PMS7003;20229;49.856;19.030;2023-11-22T00:12:47;11;11;7
33948;PMS7003;20229;49.856;19.030;2023-11-22T00:18:04;12;11;8
33948;PMS7003;20229;49.856;19.030;2023-11-22T00:23:18;11;11;6
33948;PMS7003;20229;49.856;19.030;2023-11-22T00:28:33;17;14;8
33948;PMS7003;20229;49.856;19.030;2023-11-22T00:33:49;14;12;8
33948;PMS7003;20229;49.856;19.030;2023-11-22T00:39:04;13;12;8
33948;PMS7003;20229;49.856;19.030;2023-11-22T00:44:18;14;12;7
33948;PMS7003;20229;49.856;19.030;2023-11-22T00:49:32;17;14;10
33948;PMS7003;20229;49.856;19.030;2023-11-22T00:54:46;19;15;10
33948;PMS7003;20229;49.856;19.030;2023-11-22T01:00:00;16;11;6
33948;PMS7003;20229;49.856;19.030;2023-11-22T01:05:17;19;16;9
33948;PMS7003;20229;49.856;19.030;2023-11-22T01:10:31;18;17;11
33948;PMS7003;20229;49.856;19.030;2023-11-22T01:15:45;19;18;10
33948;PMS7003;20229;49.856;19.030;2023-11-22T01:21:00;22;20;12
33948;PMS7003;20229;49.856;19.030;2023-11-22T01:26:17;18;16;12
33948;PMS7003;20229;49.856;19.030;2023-11-22T01:31:31;18;15;9
33948;PMS7003;20229;49.856;19.030;2023-11-22T01:36:49;20;18;11
33948;PMS7003;20229;49.856;19.030;2023-11-22T01:42:04;16;14;10
33948;PMS7003;20229;49.856;19.030;2023-11-22T01:47:19;19;15;10
33948;PMS7003;20229;49.856;19.030;2023-11-22T01:52:34;20;16;9
33948;PMS7003;20229;49.856;19.030;2023-11-22T01:57:48;12;8;5
33948;PMS7003;20229;49.856;19.030;2023-11-22T02:03:03;16;15;8
33948;PMS7003;20229;49.856;19.030;2023-11-22T02:08:17;16;15;10
33948;PMS7003;20229;49.856;19.030;2023-11-22T02:13:33;22;18;11
33948;PMS7003;20229;49.856;19.030;2023-11-22T02:18:47;20;16;11
33948;PMS7003;20229;49.856;19.030;2023-11-22T02:24:02;20;16;10
33948;PMS7003;20229;49.856;19.030;2023-11-22T02:29:16;23;20;12
33948;PMS7003;20229;49.856;19.030;2023-11-22T02:34:31;22;18;12
33948;PMS7003;20229;49.856;19.030;2023-11-22T02:45:15;20;16;10
33948;PMS7003;20229;49.856;19.030;2023-11-22T02:50:31;23;19;12
33948;PMS7003;20229;49.856;19.030;2023-11-22T02:55:50;20;17;11
33948;PMS7003;20229;49.856;19.030;2023-11-22T03:01:04;17;16;11
33948;PMS7003;20229;49.856;19.030;2023-11-22T03:06:18;18;16;10
33948;PMS7003;20229;49.856;19.030;2023-11-22T03:11:33;19;17;10
33948;PMS7003;20229;49.856;19.030;2023-11-22T03:16:47;19;17;10
33948;PMS7003;20229;49.856;19.030;2023-11-22T03:22:02;18;16;10
33948;PMS7003;20229;49.856;19.030;2023-11-22T03:27:16;19;16;9
33948;PMS7003;20229;49.856;19.030;2023-11-22T03:32:30;18;16;10
33948;PMS7003;20229;49.856;19.030;2023-11-22T03:37:45;23;20;12
33948;PMS7003;20229;49.856;19.030;2023-11-22T03:43:01;25;21;14
33948;PMS7003;20229;49.856;19.030;2023-11-22T03:48:15;25;22;14
33948;PMS7003;20229;49.856;19.030;2023-11-22T03:53:29;25;21;13
33948;PMS7003;20229;49.856;19.030;2023-11-22T03:58:45;20;18;12
33948;PMS7003;20229;49.856;19.030;2023-11-22T04:03:59;21;19;10
33948;PMS7003;20229;49.856;19.030;2023-11-22T04:09:13;22;18;13
33948;PMS7003;20229;49.856;19.030;2023-11-22T04:14:27;21;18;11
33948;PMS7003;20229;49.856;19.030;2023-11-22T04:19:41;22;18;12
33948;PMS7003;20229;49.856;19.030;2023-11-22T04:24:54;23;18;12
33948;PMS7003;20229;49.856;19.030;2023-11-22T04:30:09;23;20;11
33948;PMS7003;20229;49.856;19.030;2023-11-22T04:35:27;22;20;11
33948;PMS7003;20229;49.856;19.030;2023-11-22T04:40:41;21;17;12
33948;PMS7003;20229;49.856;19.030;2023-11-22T04:45:59;19;17;11
33948;PMS7003;20229;49.856;19.030;2023-11-22T04:51:13;19;15;10
33948;PMS7003;20229;49.856;19.030;2023-11-22T04:56:29;18;17;10
33948;PMS7003;20229;49.856;19.030;2023-11-22T05:01:43;22;19;12
33948;PMS7003;20229;49.856;19.030;2023-11-22T05:06:58;25;21;13
33948;PMS7003;20229;49.856;19.030;2023-11-22T05:12:12;18;17;12
33948;PMS7003;20229;49.856;19.030;2023-11-22T05:17:27;23;18;10
33948;PMS7003;20229;49.856;19.030;2023-11-22T05:22:43;22;19;12
33948;PMS7003;20229;49.856;19.030;2023-11-22T05:27:57;24;20;12
33948;PMS7003;20229;49.856;19.030;2023-11-22T05:33:12;21;18;11
33948;PMS7003;20229;49.856;19.030;2023-11-22T05:38:26;19;17;11
33948;PMS7003;20229;49.856;19.030;2023-11-22T05:43:40;23;21;13
33948;PMS7003;20229;49.856;19.030;2023-11-22T05:48:57;35;27;17
33948;PMS7003;20229;49.856;19.030;2023-11-22T05:54:10;20;18;11
33948;PMS7003;20229;49.856;19.030;2023-11-22T05:59:26;29;27;18
33948;PMS7003;20229;49.856;19.030;2023-11-22T06:04:40;20;19;12
33948;PMS7003;20229;49.856;19.030;2023-11-22T06:09:55;24;21;13
33948;PMS7003;20229;49.856;19.030;2023-11-22T06:15:10;23;20;13
33948;PMS7003;20229;49.856;19.030;2023-11-22T06:20:25;23;19;12
33948;PMS7003;20229;49.856;19.030;2023-11-22T06:25:40;22;21;12
33948;PMS7003;20229;49.856;19.030;2023-11-22T06:30:56;23;19;12
33948;PMS7003;20229;49.856;19.030;2023-11-22T06:36:10;24;21;13
33948;PMS7003;20229;49.856;19.030;2023-11-22T06:41:27;26;20;14
33948;PMS7003;20229;49.856;19.030;2023-11-22T06:46:44;25;21;12
33948;PMS7003;20229;49.856;19.030;2023-11-22T06:51:59;32;24;13
33948;PMS7003;20229;49.856;19.030;2023-11-22T06:57:13;27;23;15
33948;PMS7003;20229;49.856;19.030;2023-11-22T07:02:27;21;17;10
33948;PMS7003;20229;49.856;19.030;2023-11-22T07:07:41;31;25;16
33948;PMS7003;20229;49.856;19.030;2023-11-22T07:12:55;28;23;16
33948;PMS7003;20229;49.856;19.030;2023-11-22T07:18:09;29;24;15
33948;PMS7003;20229;49.856;19.030;2023-11-22T07:23:24;31;25;16
33948;PMS7003;20229;49.856;19.030;2023-11-22T07:28:42;29;24;17
33948;PMS7003;20229;49.856;19.030;2023-11-22T07:33:56;27;22;13
33948;PMS7003;20229;49.856;19.030;2023-11-22T07:39:12;28;24;15
33948;PMS7003;20229;49.856;19.030;2023-11-22T07:44:26;32;27;16
33948;PMS7003;20229;49.856;19.030;2023-11-22T07:49:40;24;21;13
33948;PMS7003;20229;49.856;19.030;2023-11-22T07:54:57;25;20;12
33948;PMS7003;20229;49.856;19.030;2023-11-22T08:00:11;18;16;9
33948;PMS7003;20229;49.856;19.030;2023-11-22T08:05:26;22;20;12
33948;PMS7003;20229;49.856;19.030;2023-11-22T08:10:42;25;21;12
33948;PMS7003;20229;49.856;19.030;2023-11-22T08:15:57;20;17;9
33948;PMS7003;20229;49.856;19.030;2023-11-22T08:21:11;23;21;14
33948;PMS7003;20229;49.856;19.030;2023-11-22T08:26:25;25;21;12
33948;PMS7003;20229;49.856;19.030;2023-11-22T08:31:41;24;23;14
33948;PMS7003;20229;49.856;19.030;2023-11-22T08:36:55;24;20;13
33948;PMS7003;20229;49.856;19.030;2023-11-22T08:42:09;27;24;15
33948;PMS7003;20229;49.856;19.030;2023-11-22T08:47:23;28;22;13
33948;PMS7003;20229;49.856;19.030;2023-11-22T08:52:37;28;25;16
33948;PMS7003;20229;49.856;19.030;2023-11-22T08:57:53;22;20;12
33948;PMS7003;20229;49.856;19.030;2023-11-22T09:03:08;34;27;16
33948;PMS7003;20229;49.856;19.030;2023-11-22T09:08:27;30;26;16
33948;PMS7003;20229;49.856;19.030;2023-11-22T09:13:43;27;22;13
33948;PMS7003;20229;49.856;19.030;2023-11-22T09:18:59;28;25;16
33948;PMS7003;20229;49.856;19.030;2023-11-22T09:24:14;30;26;15
33948;PMS7003;20229;49.856;19.030;2023-11-22T09:29:28;26;24;15
33948;PMS7003;20229;49.856;19.030;2023-11-22T09:34:42;31;25;16
33948;PMS7003;20229;49.856;19.030;2023-11-22T09:39:57;29;23;15
33948;PMS7003;20229;49.856;19.030;2023-11-22T09:45:11;21;18;11
33948;PMS7003;20229;49.856;19.030;2023-11-22T09:55:54;29;25;16
33948;PMS7003;20229;49.856;19.030;2023-11-22T10:01:13;25;18;13
33948;PMS7003;20229;49.856;19.030;2023-11-22T10:08:38;23;22;14
33948;PMS7003;20229;49.856;19.030;2023-11-22T10:14:04;28;23;15
33948;PMS7003;20229;49.856;19.030;2023-11-22T10:19:18;25;20;12
33948;PMS7003;20229;49.856;19.030;2023-11-22T10:24:34;29;23;14
33948;PMS7003;20229;49.856;19.030;2023-11-22T10:29:49;31;25;15
33948;PMS7003;20229;49.856;19.030;2023-11-22T10:35:06;24;20;12
33948;PMS7003;20229;49.856;19.030;2023-11-22T10:40:21;27;24;15
33948;PMS7003;20229;49.856;19.030;2023-11-22T10:45:35;24;22;13
33948;PMS7003;20229;49.856;19.030;2023-11-22T10:50:50;27;22;14
33948;PMS7003;20229;49.856;19.030;2023-11-22T10:56:11;21;18;11
33948;PMS7003;20229;49.856;19.030;2023-11-22T11:01:29;18;17;12
33948;PMS7003;20229;49.856;19.030;2023-11-22T11:06:46;34;29;19
33948;PMS7003;20229;49.856;19.030;2023-11-22T11:12:05;20;19;13
33948;PMS7003;20229;49.856;19.030;2023-11-22T11:17:21;27;23;13
33948;PMS7003;20229;49.856;19.030;2023-11-22T11:22:37;24;22;14
33948;PMS7003;20229;49.856;19.030;2023-11-22T11:33:13;29;21;13
33948;PMS7003;20229;49.856;19.030;2023-11-22T11:38:35;19;18;11
33948;PMS7003;20229;49.856;19.030;2023-11-22T11:43:50;21;19;11
33948;PMS7003;20229;49.856;19.030;2023-11-22T11:49:07;28;23;13
33948;PMS7003;20229;49.856;19.030;2023-11-22T11:54:22;21;19;12
33948;PMS7003;20229;49.856;19.030;2023-11-22T11:59:36;26;21;13
33948;PMS7003;20229;49.856;19.030;2023-11-22T12:04:51;26;22;13
33948;PMS7003;20229;49.856;19.030;2023-11-22T12:10:07;21;19;11
33948;PMS7003;20229;49.856;19.030;2023-11-22T12:15:21;20;18;11
33948;PMS7003;20229;49.856;19.030;2023-11-22T12:20:35;21;17;10
33948;PMS7003;20229;49.856;19.030;2023-11-22T12:25:53;23;18;11
33948;PMS7003;20229;49.856;19.030;2023-11-22T12:31:12;18;16;9
33948;PMS7003;20229;49.856;19.030;2023-11-22T12:36:28;21;18;10
33948;PMS7003;20229;49.856;19.030;2023-11-22T12:41:47;23;18;11
33948;PMS7003;20229;49.856;19.030;2023-11-22T12:47:04;19;19;11
33948;PMS7003;20229;49.856;19.030;2023-11-22T12:52:26;20;17;10
33948;PMS7003;20229;49.856;19.030;2023-11-22T12:57:41;19;15;10
33948;PMS7003;20229;49.856;19.030;2023-11-22T13:02:59;22;18;11
33948;PMS7003;20229;49.856;19.030;2023-11-22T13:08:14;24;19;13
33948;PMS7003;20229;49.856;19.030;2023-11-22T13:13:31;26;20;12
33948;PMS7003;20229;49.856;19.030;2023-11-22T13:18:48;32;26;16
33948;PMS7003;20229;49.856;19.030;2023-11-22T13:24:02;33;28;16
33948;PMS7003;20229;49.856;19.030;2023-11-22T13:29:19;27;24;14
33948;PMS7003;20229;49.856;19.030;2023-11-22T13:34:33;30;25;15
33948;PMS7003;20229;49.856;19.030;2023-11-22T13:39:48;32;26;16
33948;PMS7003;20229;49.856;19.030;2023-11-22T13:45:02;25;23;15
33948;PMS7003;20229;49.856;19.030;2023-11-22T13:50:17;23;22;14
33948;PMS7003;20229;49.856;19.030;2023-11-22T13:55:39;43;35;22
33948;PMS7003;20229;49.856;19.030;2023-11-22T14:00:53;30;22;13
33948;PMS7003;20229;49.856;19.030;2023-11-22T14:06:08;33;27;16
33948;PMS7003;20229;49.856;19.030;2023-11-22T14:11:24;28;26;14
33948;PMS7003;20229;49.856;19.030;2023-11-22T14:16:38;23;19;13
33948;PMS7003;20229;49.856;19.030;2023-11-22T14:21:57;25;22;14
33948;PMS7003;20229;49.856;19.030;2023-11-22T14:27:11;28;24;15
33948;PMS7003;20229;49.856;19.030;2023-11-22T14:32:25;28;23;14
33948;PMS7003;20229;49.856;19.030;2023-11-22T14:37:40;31;24;15
33948;PMS7003;20229;49.856;19.030;2023-11-22T14:42:55;26;21;14
33948;PMS7003;20229;49.856;19.030;2023-11-22T14:48:10;23;19;13
33948;PMS7003;20229;49.856;19.030;2023-11-22T14:53:26;26;20;12
33948;PMS7003;20229;49.856;19.030;2023-11-22T14:58:41;29;25;17
33948;PMS7003;20229;49.856;19.030;2023-11-22T15:03:55;29;22;14
33948;PMS7003;20229;49.856;19.030;2023-11-22T15:09:11;21;19;13
33948;PMS7003;20229;49.856;19.030;2023-11-22T15:14:29;24;21;12
33948;PMS7003;20229;49.856;19.030;2023-11-22T15:19:46;20;18;11
33948;PMS7003;20229;49.856;19.030;2023-11-22T15:25:00;22;17;11
33948;PMS7003;20229;49.856;19.030;2023-11-22T15:30:14;16;15;10
33948;PMS7003;20229;49.856;19.030;2023-11-22T15:35:32;21;16;10
33948;PMS7003;20229;49.856;19.030;2023-11-22T15:40:46;23;18;12
33948;PMS7003;20229;49.856;19.030;2023-11-22T15:46:00;24;21;14
33948;PMS7003;20229;49.856;19.030;2023-11-22T15:51:14;24;20;13
33948;PMS7003;20229;49.856;19.030;2023-11-22T15:56:31;34;26;17
33948;PMS7003;20229;49.856;19.030;2023-11-22T16:01:45;29;24;15
33948;PMS7003;20229;49.856;19.030;2023-11-22T16:07:04;17;15;10
33948;PMS7003;20229;49.856;19.030;2023-11-22T16:12:19;31;24;15
33948;PMS7003;20229;49.856;19.030;2023-11-22T16:17:34;30;25;15
33948;PMS7003;20229;49.856;19.030;2023-11-22T16:22:49;31;25;16
33948;PMS7003;20229;49.856;19.030;2023-11-22T16:28:03;30;24;15
33948;PMS7003;20229;49.856;19.030;2023-11-22T16:33:17;29;25;16
33948;PMS7003;20229;49.856;19.030;2023-11-22T16:38:39;28;25;16
33948;PMS7003;20229;49.856;19.030;2023-11-22T16:43:53;34;28;18
33948;PMS7003;20229;49.856;19.030;2023-11-22T16:49:07;27;24;15
33948;PMS7003;20229;49.856;19.030;2023-11-22T16:54:22;40;29;19
33948;PMS7003;20229;49.856;19.030;2023-11-22T16:59:36;47;38;24
33948;PMS7003;20229;49.856;19.030;2023-11-22T17:04:51;36;31;20
33948;PMS7003;20229;49.856;19.030;2023-11-22T17:10:11;36;30;19
33948;PMS7003;20229;49.856;19.030;2023-11-22T17:15:28;36;27;17
33948;PMS7003;20229;49.856;19.030;2023-11-22T17:20:46;32;26;16
33948;PMS7003;20229;49.856;19.030;2023-11-22T17:26:00;36;28;17
33948;PMS7003;20229;49.856;19.030;2023-11-22T17:31:16;39;32;20
33948;PMS7003;20229;49.856;19.030;2023-11-22T17:36:30;46;36;23
33948;PMS7003;20229;49.856;19.030;2023-11-22T17:41:44;39;30;18
33948;PMS7003;20229;49.856;19.030;2023-11-22T17:46:58;47;38;23
33948;PMS7003;20229;49.856;19.030;2023-11-22T17:52:15;48;36;22
33948;PMS7003;20229;49.856;19.030;2023-11-22T17:57:29;36;29;17
33948;PMS7003;20229;49.856;19.030;2023-11-22T18:02:44;44;35;21
33948;PMS7003;20229;49.856;19.030;2023-11-22T18:07:58;39;31;19
33948;PMS7003;20229;49.856;19.030;2023-11-22T18:13:14;29;24;16
33948;PMS7003;20229;49.856;19.030;2023-11-22T18:18:28;32;27;18
33948;PMS7003;20229;49.856;19.030;2023-11-22T18:23:46;38;31;19
33948;PMS7003;20229;49.856;19.030;2023-11-22T18:29:04;35;30;18
33948;PMS7003;20229;49.856;19.030;2023-11-22T18:34:18;34;29;17
33948;PMS7003;20229;49.856;19.030;2023-11-22T18:39:36;39;28;19
33948;PMS7003;20229;49.856;19.030;2023-11-22T18:44:50;35;28;18
33948;PMS7003;20229;49.856;19.030;2023-11-22T18:50:04;32;27;18
33948;PMS7003;20229;49.856;19.030;2023-11-22T18:55:20;29;24;16
33948;PMS7003;20229;49.856;19.030;2023-11-22T19:00:34;29;24;16
33948;PMS7003;20229;49.856;19.030;2023-11-22T19:05:51;31;26;16
33948;PMS7003;20229;49.856;19.030;2023-11-22T19:11:08;31;25;18
33948;PMS7003;20229;49.856;19.030;2023-11-22T19:16:33;34;27;18
33948;PMS7003;20229;49.856;19.030;2023-11-22T19:21:51;35;29;18
33948;PMS7003;20229;49.856;19.030;2023-11-22T19:27:08;36;30;19
33948;PMS7003;20229;49.856;19.030;2023-11-22T19:32:22;38;30;18
33948;PMS7003;20229;49.856;19.030;2023-11-22T19:37:36;35;29;18
33948;PMS7003;20229;49.856;19.030;2023-11-22T19:42:50;38;29;19
33948;PMS7003;20229;49.856;19.030;2023-11-22T19:48:05;43;34;22
33948;PMS7003;20229;49.856;19.030;2023-11-22T19:53:20;36;31;19
33948;PMS7003;20229;49.856;19.030;2023-11-22T19:58:35;32;26;17
33948;PMS7003;20229;49.856;19.030;2023-11-22T20:03:50;34;28;19
33948;PMS7003;20229;49.856;19.030;2023-11-22T20:09:15;36;30;19
33948;PMS7003;20229;49.856;19.030;2023-11-22T20:14:34;33;28;19
33948;PMS7003;20229;49.856;19.030;2023-11-22T20:19:54;37;29;18
33948;PMS7003;20229;49.856;19.030;2023-11-22T20:25:12;39;31;20
33948;PMS7003;20229;49.856;19.030;2023-11-22T20:30:34;44;34;21
33948;PMS7003;20229;49.856;19.030;2023-11-22T20:35:51;36;30;19
33948;PMS7003;20229;49.856;19.030;2023-11-22T20:41:06;37;27;16
33948;PMS7003;20229;49.856;19.030;2023-11-22T20:46:20;20;18;12
33948;PMS7003;20229;49.856;19.030;2023-11-22T20:51:34;26;22;15
33948;PMS7003;20229;49.856;19.030;2023-11-22T20:56:48;27;23;15
33948;PMS7003;20229;49.856;19.030;2023-11-22T21:02:03;26;22;15
33948;PMS7003;20229;49.856;19.030;2023-11-22T21:07:17;25;21;14
33948;PMS7003;20229;49.856;19.030;2023-11-22T21:12:32;25;23;14
33948;PMS7003;20229;49.856;19.030;2023-11-22T21:17:46;27;24;15
33948;PMS7003;20229;49.856;19.030;2023-11-22T21:23:01;34;25;16
33948;PMS7003;20229;49.856;19.030;2023-11-22T21:28:16;25;21;13
33948;PMS7003;20229;49.856;19.030;2023-11-22T21:33:31;23;20;13
33948;PMS7003;20229;49.856;19.030;2023-11-22T21:38:45;30;24;13
33948;PMS7003;20229;49.856;19.030;2023-11-22T21:43:59;29;25;14
33948;PMS7003;20229;49.856;19.030;2023-11-22T21:49:13;29;24;15
33948;PMS7003;20229;49.856;19.030;2023-11-22T21:54:27;28;24;15
33948;PMS7003;20229;49.856;19.030;2023-11-22T21:59:41;12;8;2
33948;PMS7003;20229;49.856;19.030;2023-11-22T22:04:55;31;26;15
33948;PMS7003;20229;49.856;19.030;2023-11-22T22:10:09;27;25;15
33948;PMS7003;20229;49.856;19.030;2023-11-22T22:15:25;27;24;15
33948;PMS7003;20229;49.856;19.030;2023-11-22T22:20:38;32;27;16
33948;PMS7003;20229;49.856;19.030;2023-11-22T22:25:56;32;26;15
33948;PMS7003;20229;49.856;19.030;2023-11-22T22:31:10;34;29;18
33948;PMS7003;20229;49.856;19.030;2023-11-22T22:36:25;35;29;18
33948;PMS7003;20229;49.856;19.030;2023-11-22T22:41:40;32;25;16
33948;PMS7003;20229;49.856;19.030;2023-11-22T22:46:53;35;28;17
33948;PMS7003;20229;49.856;19.030;2023-11-22T22:52:08;33;27;16
33948;PMS7003;20229;49.856;19.030;2023-11-22T22:57:22;33;28;16
33948;PMS7003;20229;49.856;19.030;2023-11-22T23:02:36;30;23;14
33948;PMS7003;20229;49.856;19.030;2023-11-22T23:07:50;31;26;14
33948;PMS7003;20229;49.856;19.030;2023-11-22T23:13:04;27;24;15
33948;PMS7003;20229;49.856;19.030;2023-11-22T23:18:20;29;23;13
33948;PMS7003;20229;49.856;19.030;2023-11-22T23:23:35;26;24;15
33948;PMS7003;20229;49.856;19.030;2023-11-22T23:28:49;30;24;14
33948;PMS7003;20229;49.856;19.030;2023-11-22T23:34:03;30;24;14
33948;PMS7003;20229;49.856;19.030;2023-11-22T23:39:20;25;20;11
33948;PMS7003;20229;49.856;19.030;2023-11-22T23:44:35;24;21;14
33948;PMS7003;20229;49.856;19.030;2023-11-22T23:49:49;26;21;13
33948;PMS7003;20229;49.856;19.030;2023-11-22T23:55:03;24;22;14
